createdAt,value
2022-12-08T00:00:55.608Z,52.58
2022-12-08T00:01:57.558Z,51.03
2022-12-08T00:02:59.507Z,49.13
2022-12-08T00:04:03.308Z,53.28
2022-12-08T00:05:24.133Z,50.42
2022-12-08T00:07:01.525Z,56.85
2022-12-08T00:08:22.163Z,48.72
2022-12-08T00:09:26.410Z,50.73
2022-12-08T00:10:48.328Z,53.13
2022-12-08T00:11:56.352Z,49.17
2022-12-08T00:12:58.009Z,44.55
2022-12-08T00:14:00.685Z,50.60
2022-12-08T00:15:02.972Z,48.10
2022-12-08T00:16:05.077Z,47.58
2022-12-08T00:17:08.632Z,49.58
2022-12-08T00:18:10.310Z,51.95
2022-12-08T00:19:12.001Z,54.90
2022-12-08T00:20:13.699Z,52.20
2022-12-08T00:21:15.500Z,49.30
2022-12-08T00:22:17.216Z,50.72
2022-12-08T00:23:18.859Z,50.22
2022-12-08T00:24:22.028Z,50.72
2022-12-08T00:25:23.717Z,51.00
2022-12-08T00:26:25.402Z,48.67
2022-12-08T00:27:27.069Z,52.60
2022-12-08T00:28:28.720Z,50.90
2022-12-08T00:29:30.550Z,48.00
2022-12-08T00:30:32.223Z,46.92
2022-12-08T00:31:34.242Z,44.70
2022-12-08T00:32:37.815Z,52.38
2022-12-08T00:33:39.557Z,50.55
2022-12-08T00:34:41.241Z,46.92
2022-12-08T00:35:43.392Z,48.13
2022-12-08T00:36:45.340Z,50.47
2022-12-08T00:37:47.101Z,50.22
2022-12-08T00:38:48.814Z,47.72
2022-12-08T00:39:50.644Z,51.13
2022-12-08T00:40:52.312Z,50.60
2022-12-08T00:42:12.434Z,46.30
2022-12-08T00:43:14.647Z,43.35
2022-12-08T00:44:19.044Z,46.50
2022-12-08T00:45:21.086Z,44.45
2022-12-08T00:46:22.842Z,47.92
2022-12-08T00:47:25.068Z,53.13
2022-12-08T00:48:26.879Z,48.80
2022-12-08T00:49:28.576Z,47.53
2022-12-08T00:50:30.342Z,46.53
2022-12-08T00:51:32.724Z,45.97
2022-12-08T00:52:34.483Z,48.10
2022-12-08T00:53:36.172Z,49.75
2022-12-08T00:54:37.909Z,50.17
2022-12-08T00:55:39.562Z,48.67
2022-12-08T00:56:41.310Z,51.55
2022-12-08T00:57:43.015Z,46.13
2022-12-08T00:58:44.669Z,46.58
2022-12-08T00:59:46.400Z,51.75
2022-12-08T01:00:48.174Z,52.28
2022-12-08T01:01:50.074Z,51.50
2022-12-08T01:02:51.881Z,49.38
2022-12-08T01:03:53.641Z,50.90
2022-12-08T01:04:55.292Z,42.47
2022-12-08T01:05:57.003Z,52.08
2022-12-08T01:06:58.681Z,49.78
2022-12-08T01:08:00.429Z,47.20
2022-12-08T01:09:04.464Z,44.85
2022-12-08T01:10:07.267Z,50.83
2022-12-08T01:11:16.582Z,53.22
2022-12-08T01:12:18.472Z,52.58
2022-12-08T01:13:20.298Z,49.28
2022-12-08T01:14:21.988Z,49.95
2022-12-08T01:15:23.688Z,47.70
2022-12-08T01:16:28.530Z,49.95
2022-12-08T01:17:30.253Z,55.20
2022-12-08T01:18:32.400Z,54.72
2022-12-08T01:19:34.818Z,48.15
2022-12-08T01:20:36.516Z,51.20
2022-12-08T01:21:38.229Z,48.50
2022-12-08T01:22:39.895Z,48.95
2022-12-08T01:23:41.574Z,48.30
2022-12-08T01:24:43.325Z,56.63
2022-12-08T01:25:45.585Z,51.40
2022-12-08T01:26:48.667Z,53.10
2022-12-08T01:27:52.874Z,52.65
2022-12-08T01:28:54.735Z,189.75
2022-12-08T01:29:56.457Z,258.95
2022-12-08T01:30:59.402Z,92.72
2022-12-08T01:32:01.203Z,81.95
2022-12-08T01:33:02.906Z,56.65
2022-12-08T01:34:05.079Z,58.75
2022-12-08T01:35:06.960Z,51.80
2022-12-08T01:36:18.562Z,53.20
2022-12-08T01:37:20.940Z,47.22
2022-12-08T01:38:23.077Z,57.28
2022-12-08T01:39:24.812Z,54.25
2022-12-08T01:40:26.539Z,53.92
2022-12-08T01:41:31.671Z,56.70
2022-12-08T01:42:34.623Z,55.83
2022-12-08T01:43:55.236Z,53.70
2022-12-08T01:45:01.221Z,50.10
2022-12-08T01:46:02.990Z,49.88
2022-12-08T01:47:04.788Z,57.58
2022-12-08T01:48:35.637Z,57.63
2022-12-08T01:49:37.640Z,58.08
2022-12-08T01:50:41.436Z,56.03
2022-12-08T01:51:59.185Z,58.55
2022-12-08T01:53:14.728Z,52.85
2022-12-08T01:54:17.280Z,56.63
2022-12-08T01:55:44.137Z,60.67
2022-12-08T01:57:04.212Z,58.15
2022-12-08T01:58:13.588Z,53.83
2022-12-08T01:59:15.733Z,55.75
2022-12-08T02:00:19.643Z,57.88
2022-12-08T02:01:21.640Z,57.42
2022-12-08T02:02:26.672Z,56.13
2022-12-08T02:03:41.363Z,59.38
2022-12-08T02:04:43.121Z,55.00
2022-12-08T02:05:46.217Z,62.90
2022-12-08T02:06:49.801Z,57.17
2022-12-08T02:07:52.843Z,59.60
2022-12-08T02:08:55.364Z,56.78
2022-12-08T02:09:57.807Z,55.50
2022-12-08T02:10:59.483Z,55.97
2022-12-08T02:12:01.388Z,62.60
2022-12-08T02:13:06.069Z,61.13
2022-12-08T02:14:11.751Z,59.05
2022-12-08T02:15:14.847Z,59.05
2022-12-08T02:16:42.249Z,62.17
2022-12-08T02:18:13.972Z,66.97
2022-12-08T02:19:30.836Z,57.70
2022-12-08T02:20:55.328Z,54.88
2022-12-08T02:22:09.208Z,61.17
2022-12-08T02:23:31.890Z,58.22
2022-12-08T02:25:11.093Z,55.00
2022-12-08T02:26:37.241Z,60.42
2022-12-08T02:28:36.149Z,56.70
2022-12-08T02:29:53.416Z,56.22
2022-12-08T02:31:18.396Z,58.60
2022-12-08T02:32:35.177Z,61.88
2022-12-08T02:34:18.636Z,57.53
2022-12-08T02:35:43.421Z,53.90
2022-12-08T02:36:50.865Z,54.15
2022-12-08T02:38:46.387Z,50.75
2022-12-08T02:40:15.072Z,54.90
2022-12-08T02:41:31.985Z,56.80
2022-12-08T02:42:39.639Z,57.30
2022-12-08T02:43:55.485Z,54.67
2022-12-08T02:45:21.704Z,54.97
2022-12-08T02:46:53.693Z,54.22
2022-12-08T02:47:55.928Z,58.65
2022-12-08T02:48:59.264Z,59.85
2022-12-08T02:50:01.233Z,59.90
2022-12-08T02:51:03.429Z,72.97
2022-12-08T02:52:13.935Z,77.18
2022-12-08T02:55:29.209Z,78.35
2022-12-08T02:56:49.697Z,70.63
2022-12-08T02:58:09.811Z,73.30
2022-12-08T02:59:17.299Z,55.13
2022-12-08T03:00:21.917Z,56.80
2022-12-08T03:01:31.029Z,56.38
2022-12-08T03:02:38.838Z,55.72
2022-12-08T03:03:52.423Z,49.03
2022-12-08T03:04:58.815Z,47.45
2022-12-08T03:06:35.026Z,50.75
2022-12-08T03:08:12.825Z,47.05
2022-12-08T03:09:21.118Z,50.45
2022-12-08T03:10:29.947Z,48.75
2022-12-08T03:11:35.850Z,50.40
2022-12-08T03:12:43.858Z,51.30
2022-12-08T03:13:49.267Z,50.42
2022-12-08T03:14:54.172Z,55.13
2022-12-08T03:15:56.309Z,53.78
2022-12-08T03:17:00.042Z,54.45
2022-12-08T03:18:01.742Z,50.45
2022-12-08T03:19:13.758Z,47.67
2022-12-08T03:20:20.980Z,49.47
2022-12-08T03:21:23.360Z,49.42
2022-12-08T03:22:27.428Z,46.38
2022-12-08T03:23:30.805Z,50.75
2022-12-08T03:24:36.963Z,50.05
2022-12-08T03:25:47.379Z,53.10
2022-12-08T03:26:54.870Z,52.80
2022-12-08T03:27:56.840Z,47.75
2022-12-08T03:28:58.856Z,48.33
2022-12-08T03:30:01.694Z,52.38
2022-12-08T03:31:07.287Z,46.95
2022-12-08T03:32:11.728Z,45.75
2022-12-08T03:33:23.917Z,49.45
2022-12-08T03:34:29.920Z,48.47
2022-12-08T03:35:35.800Z,45.53
2022-12-08T03:36:38.134Z,43.47
2022-12-08T03:37:40.362Z,42.70
2022-12-08T03:38:45.314Z,47.45
2022-12-08T03:39:47.213Z,38.10
2022-12-08T03:41:07.710Z,42.63
2022-12-08T03:42:09.389Z,41.58
2022-12-08T03:43:11.083Z,46.65
2022-12-08T03:44:13.027Z,47.83
2022-12-08T03:45:14.713Z,50.60
2022-12-08T03:46:17.984Z,45.35
2022-12-08T03:47:19.715Z,75.20
2022-12-08T03:48:21.405Z,128.95
2022-12-08T03:49:23.183Z,140.25
2022-12-08T03:50:25.323Z,88.57
2022-12-08T03:51:27.421Z,53.38
2022-12-08T03:52:29.117Z,56.63
2022-12-08T03:53:30.785Z,47.72
2022-12-08T03:54:32.496Z,48.70
2022-12-08T03:55:34.153Z,47.15
2022-12-08T03:56:38.558Z,44.20
2022-12-08T03:57:40.257Z,46.63
2022-12-08T03:58:43.612Z,51.72
2022-12-08T03:59:45.278Z,47.42
2022-12-08T04:00:46.943Z,46.00
2022-12-08T04:01:48.722Z,48.88
2022-12-08T04:02:50.455Z,50.97
2022-12-08T04:03:52.276Z,47.13
2022-12-08T04:04:53.939Z,47.22
2022-12-08T04:05:55.601Z,43.08
2022-12-08T04:06:57.431Z,46.65
2022-12-08T04:07:59.197Z,47.08
2022-12-08T04:09:01.008Z,49.63
2022-12-08T04:10:03.007Z,47.45
2022-12-08T04:11:06.611Z,44.88
2022-12-08T04:12:09.561Z,45.17
2022-12-08T04:13:11.256Z,44.08
2022-12-08T04:14:13.032Z,46.03
2022-12-08T04:15:14.705Z,45.63
2022-12-08T04:16:19.248Z,48.15
2022-12-08T04:17:21.000Z,44.97
2022-12-08T04:18:23.163Z,47.30
2022-12-08T04:19:24.904Z,48.28
2022-12-08T04:20:26.594Z,49.85
2022-12-08T04:21:28.358Z,43.38
2022-12-08T04:22:30.079Z,51.35
2022-12-08T04:23:32.040Z,49.60
2022-12-08T04:24:33.799Z,50.33
2022-12-08T04:25:36.890Z,51.30
2022-12-08T04:26:38.565Z,47.90
2022-12-08T04:27:40.288Z,46.72
2022-12-08T04:28:42.068Z,343.88
2022-12-08T04:29:43.744Z,258.90
2022-12-08T04:30:45.787Z,104.40
2022-12-08T04:31:47.485Z,62.70
2022-12-08T04:32:49.181Z,56.08
2022-12-08T04:33:50.891Z,58.75
2022-12-08T04:34:52.553Z,50.13
2022-12-08T04:35:54.257Z,52.33
2022-12-08T04:36:55.914Z,80.78
2022-12-08T04:37:57.787Z,64.65
2022-12-08T04:39:00.030Z,65.82
2022-12-08T04:40:01.909Z,102.68
2022-12-08T04:41:03.890Z,180.30
2022-12-08T04:42:05.627Z,137.70
2022-12-08T04:43:07.314Z,89.95
2022-12-08T04:44:08.999Z,59.60
2022-12-08T04:45:11.074Z,51.15
2022-12-08T04:46:13.007Z,47.45
2022-12-08T04:47:14.784Z,43.65
2022-12-08T04:48:16.987Z,46.53
2022-12-08T04:49:18.687Z,43.47
2022-12-08T04:50:20.344Z,47.95
2022-12-08T04:51:22.283Z,48.20
2022-12-08T04:52:23.963Z,46.65
2022-12-08T04:53:26.907Z,48.50
2022-12-08T04:54:28.576Z,44.42
2022-12-08T04:55:30.297Z,56.95
2022-12-08T04:56:31.987Z,53.33
2022-12-08T04:57:33.789Z,49.85
2022-12-08T04:58:35.475Z,55.55
2022-12-08T04:59:37.265Z,54.20
2022-12-08T05:00:38.981Z,52.28
2022-12-08T05:01:40.767Z,54.75
2022-12-08T05:02:42.702Z,58.25
2022-12-08T05:03:44.506Z,55.85
2022-12-08T05:04:46.173Z,59.40
2022-12-08T05:05:47.921Z,56.85
2022-12-08T05:06:49.595Z,51.05
2022-12-08T05:07:51.364Z,53.83
2022-12-08T05:08:53.125Z,53.03
2022-12-08T05:09:54.956Z,53.95
2022-12-08T05:11:08.616Z,50.00
2022-12-08T05:12:10.378Z,53.58
2022-12-08T05:13:12.040Z,45.05
2022-12-08T05:14:15.598Z,49.47
2022-12-08T05:15:17.406Z,50.67
2022-12-08T05:16:19.160Z,51.95
2022-12-08T05:17:20.849Z,52.08
2022-12-08T05:18:22.497Z,50.35
2022-12-08T05:19:24.417Z,52.80
2022-12-08T05:20:26.065Z,46.83
2022-12-08T05:21:27.733Z,45.20
2022-12-08T05:22:29.417Z,54.53
2022-12-08T05:23:31.089Z,45.15
2022-12-08T05:24:32.816Z,46.83
2022-12-08T05:25:34.475Z,48.85
2022-12-08T05:26:36.271Z,53.47
2022-12-08T05:27:37.972Z,52.53
2022-12-08T05:28:41.825Z,45.60
2022-12-08T05:29:44.644Z,46.90
2022-12-08T05:30:46.590Z,47.10
2022-12-08T05:31:48.403Z,49.45
2022-12-08T05:32:50.103Z,46.20
2022-12-08T05:33:52.512Z,53.33
2022-12-08T05:34:54.249Z,52.70
2022-12-08T05:35:56.023Z,46.00
2022-12-08T05:36:57.733Z,54.65
2022-12-08T05:37:59.424Z,56.25
2022-12-08T05:39:01.154Z,55.17
2022-12-08T05:40:03.988Z,50.10
2022-12-08T05:41:07.012Z,49.35
2022-12-08T05:42:08.705Z,52.10
2022-12-08T05:43:11.013Z,50.15
2022-12-08T05:44:12.708Z,56.42
2022-12-08T05:45:14.375Z,56.88
2022-12-08T05:46:17.042Z,55.53
2022-12-08T05:47:18.813Z,50.50
2022-12-08T05:48:20.533Z,65.57
2022-12-08T05:49:22.203Z,56.55
2022-12-08T05:50:23.909Z,56.67
2022-12-08T05:51:25.699Z,48.90
2022-12-08T05:52:27.669Z,47.17
2022-12-08T05:53:29.496Z,45.95
2022-12-08T05:54:31.228Z,40.72
2022-12-08T05:55:32.873Z,42.90
2022-12-08T05:56:34.601Z,49.42
2022-12-08T05:57:36.299Z,41.28
2022-12-08T05:58:38.011Z,43.17
2022-12-08T05:59:39.810Z,41.97
2022-12-08T06:00:42.199Z,41.63
2022-12-08T06:01:44.667Z,43.47
2022-12-08T06:02:46.639Z,39.38
2022-12-08T06:03:49.024Z,43.70
2022-12-08T06:04:50.682Z,43.08
2022-12-08T06:05:52.426Z,48.08
2022-12-08T06:06:54.162Z,51.55
2022-12-08T06:07:55.858Z,53.20
2022-12-08T06:08:57.589Z,51.92
2022-12-08T06:09:59.272Z,53.42
2022-12-08T06:11:01.108Z,47.40
2022-12-08T06:12:02.806Z,49.47
2022-12-08T06:13:04.506Z,48.60
2022-12-08T06:14:11.200Z,52.03
2022-12-08T06:15:12.875Z,49.60
2022-12-08T06:16:14.657Z,44.10
2022-12-08T06:17:16.366Z,50.33
2022-12-08T06:18:18.057Z,40.65
2022-12-08T06:19:20.099Z,43.33
2022-12-08T06:20:21.766Z,48.45
2022-12-08T06:21:23.854Z,44.53
2022-12-08T06:22:25.709Z,40.95
2022-12-08T06:23:27.385Z,43.28
2022-12-08T06:24:29.054Z,46.95
2022-12-08T06:25:30.855Z,47.10
2022-12-08T06:26:32.557Z,48.03
2022-12-08T06:27:34.577Z,51.60
2022-12-08T06:28:37.022Z,49.67
2022-12-08T06:29:38.673Z,51.53
2022-12-08T06:30:40.319Z,53.45
2022-12-08T06:31:42.016Z,48.60
2022-12-08T06:32:44.219Z,52.53
2022-12-08T06:33:46.481Z,52.65
2022-12-08T06:34:48.143Z,53.60
2022-12-08T06:35:49.836Z,53.60
2022-12-08T06:36:51.499Z,49.58
2022-12-08T06:37:53.213Z,46.30
2022-12-08T06:38:55.477Z,46.78
2022-12-08T06:39:57.221Z,46.95
2022-12-08T06:40:59.532Z,47.25
2022-12-08T06:42:20.005Z,47.10
2022-12-08T06:43:22.072Z,45.85
2022-12-08T06:44:23.872Z,44.03
2022-12-08T06:45:25.581Z,48.40
2022-12-08T06:46:27.382Z,44.97
2022-12-08T06:47:29.110Z,43.22
2022-12-08T06:48:30.923Z,47.70
2022-12-08T06:49:32.621Z,47.22
2022-12-08T06:50:35.153Z,44.28
2022-12-08T06:51:36.816Z,45.20
2022-12-08T06:52:47.245Z,46.63
2022-12-08T06:53:54.875Z,47.03
2022-12-08T06:54:56.617Z,51.00
2022-12-08T06:55:59.649Z,46.05
2022-12-08T06:57:01.580Z,49.97
2022-12-08T06:58:03.255Z,51.53
2022-12-08T06:59:05.075Z,65.50
2022-12-08T07:00:08.190Z,76.85
2022-12-08T07:01:13.550Z,76.75
2022-12-08T07:02:15.348Z,62.55
2022-12-08T07:03:17.145Z,50.40
2022-12-08T07:04:18.825Z,51.08
2022-12-08T07:05:20.526Z,49.35
2022-12-08T07:06:24.051Z,51.53
2022-12-08T07:07:25.743Z,48.70
2022-12-08T07:08:27.539Z,51.53
2022-12-08T07:09:29.374Z,42.47
2022-12-08T07:10:31.419Z,40.75
2022-12-08T07:11:33.081Z,47.92
2022-12-08T07:12:34.797Z,47.28
2022-12-08T07:13:36.812Z,45.28
2022-12-08T07:14:38.457Z,46.83
2022-12-08T07:15:40.097Z,46.95
2022-12-08T07:16:41.856Z,45.53
2022-12-08T07:17:43.585Z,46.80
2022-12-08T07:18:45.282Z,40.58
2022-12-08T07:19:46.931Z,41.28
2022-12-08T07:20:48.578Z,39.90
2022-12-08T07:21:50.252Z,43.72
2022-12-08T07:22:53.030Z,43.65
2022-12-08T07:23:57.914Z,42.20
2022-12-08T07:24:59.815Z,40.72
2022-12-08T07:26:07.933Z,36.92
2022-12-08T07:27:09.576Z,43.58
2022-12-08T07:28:11.468Z,40.97
2022-12-08T07:29:13.152Z,38.47
2022-12-08T07:30:15.179Z,44.17
2022-12-08T07:31:20.145Z,37.65
2022-12-08T07:32:21.852Z,43.03
2022-12-08T07:33:24.862Z,39.00
2022-12-08T07:34:26.535Z,39.67
2022-12-08T07:35:28.297Z,41.25
2022-12-08T07:36:30.116Z,39.80
2022-12-08T07:37:33.612Z,41.25
2022-12-08T07:38:35.625Z,41.55
2022-12-08T07:39:37.328Z,40.28
2022-12-08T07:40:39.476Z,48.75
2022-12-08T07:41:41.145Z,42.80
2022-12-08T07:42:42.805Z,45.58
2022-12-08T07:43:45.184Z,44.90
2022-12-08T07:44:47.184Z,45.65
2022-12-08T07:45:49.992Z,45.58
2022-12-08T07:46:51.735Z,48.35
2022-12-08T07:47:53.389Z,47.45
2022-12-08T07:48:55.816Z,51.85
2022-12-08T07:49:57.515Z,50.35
2022-12-08T07:51:05.867Z,50.38
2022-12-08T07:52:07.569Z,50.92
2022-12-08T07:53:09.267Z,48.75
2022-12-08T07:54:12.557Z,49.83
2022-12-08T07:55:14.251Z,44.22
2022-12-08T07:56:16.061Z,52.35
2022-12-08T07:57:17.751Z,55.03
2022-12-08T07:58:19.411Z,47.83
2022-12-08T07:59:21.421Z,49.35
2022-12-08T08:00:23.334Z,44.30
2022-12-08T08:01:33.350Z,44.58
2022-12-08T08:02:35.233Z,45.90
2022-12-08T08:03:37.012Z,42.30
2022-12-08T08:04:38.812Z,39.25
2022-12-08T08:05:40.564Z,41.45
2022-12-08T08:06:42.231Z,45.05
2022-12-08T08:07:44.715Z,43.35
2022-12-08T08:08:46.731Z,45.70
2022-12-08T08:09:48.390Z,44.55
2022-12-08T08:10:50.083Z,46.72
2022-12-08T08:12:07.464Z,43.50
2022-12-08T08:14:15.363Z,43.92
2022-12-08T08:15:18.029Z,42.95
2022-12-08T08:16:20.409Z,44.80
2022-12-08T08:17:22.308Z,40.60
2022-12-08T08:18:24.101Z,50.22
2022-12-08T08:19:28.323Z,47.08
2022-12-08T08:20:29.984Z,47.78
2022-12-08T08:21:46.960Z,44.88
2022-12-08T08:22:50.421Z,47.65
2022-12-08T08:23:52.099Z,42.80
2022-12-08T08:24:54.578Z,47.00
2022-12-08T08:26:00.569Z,52.85
2022-12-08T08:27:02.278Z,97.35
2022-12-08T08:28:03.955Z,82.80
2022-12-08T08:29:05.648Z,82.72
2022-12-08T08:30:11.339Z,72.10
2022-12-08T08:31:14.766Z,62.78
2022-12-08T08:32:16.563Z,57.47
2022-12-08T08:33:18.238Z,49.35
2022-12-08T08:34:19.938Z,48.45
2022-12-08T08:35:21.608Z,50.17
2022-12-08T08:36:23.503Z,43.47
2022-12-08T08:37:25.319Z,42.60
2022-12-08T08:38:27.633Z,44.58
2022-12-08T08:39:30.376Z,50.55
2022-12-08T08:40:32.076Z,49.50
2022-12-08T08:41:35.460Z,44.67
2022-12-08T08:42:37.213Z,50.47
2022-12-08T08:43:39.133Z,56.75
2022-12-08T08:44:40.878Z,49.63
2022-12-08T08:45:42.532Z,46.20
2022-12-08T08:46:44.308Z,44.60
2022-12-08T08:47:46.119Z,48.67
2022-12-08T08:48:47.831Z,50.03
2022-12-08T08:49:49.518Z,45.95
2022-12-08T08:50:51.209Z,46.03
2022-12-08T08:51:52.904Z,43.28
2022-12-08T08:52:54.551Z,50.33
2022-12-08T08:53:57.158Z,49.13
2022-12-08T08:54:58.871Z,55.72
2022-12-08T08:56:02.785Z,46.20
2022-12-08T08:57:04.835Z,45.85
2022-12-08T08:58:06.516Z,50.08
2022-12-08T08:59:09.437Z,46.88
2022-12-08T09:00:11.890Z,42.53
2022-12-08T09:01:28.352Z,44.10
2022-12-08T09:02:30.105Z,50.45
2022-12-08T09:03:31.892Z,46.78
2022-12-08T09:04:33.615Z,47.45
2022-12-08T09:05:35.351Z,55.15
2022-12-08T09:06:37.264Z,55.10
2022-12-08T09:07:39.107Z,64.13
2022-12-08T09:08:42.062Z,51.97
2022-12-08T09:09:43.937Z,49.38
2022-12-08T09:10:45.686Z,47.80
2022-12-08T09:11:47.367Z,54.22
2022-12-08T09:12:49.363Z,49.40
2022-12-08T09:13:52.390Z,62.17
2022-12-08T09:14:54.109Z,58.83
2022-12-08T09:15:55.811Z,59.58
2022-12-08T09:16:57.579Z,51.10
2022-12-08T09:17:59.255Z,48.60
2022-12-08T09:19:01.034Z,55.95
2022-12-08T09:20:03.197Z,51.38
2022-12-08T09:21:15.165Z,50.38
2022-12-08T09:22:16.843Z,49.97
2022-12-08T09:23:18.561Z,59.47
2022-12-08T09:24:20.271Z,51.97
2022-12-08T09:25:21.941Z,45.22
2022-12-08T09:26:24.643Z,45.75
2022-12-08T09:27:26.315Z,42.20
2022-12-08T09:28:27.982Z,42.63
2022-12-08T09:29:35.390Z,43.13
2022-12-08T09:30:37.767Z,48.75
2022-12-08T09:31:39.643Z,40.85
2022-12-08T09:32:41.370Z,45.53
2022-12-08T09:33:43.525Z,45.25
2022-12-08T09:34:50.465Z,44.42
2022-12-08T09:35:53.655Z,47.58
2022-12-08T09:36:55.323Z,50.70
2022-12-08T09:37:57.022Z,47.67
2022-12-08T09:38:58.733Z,54.28
2022-12-08T09:40:00.511Z,42.78
2022-12-08T09:41:04.480Z,46.20
2022-12-08T09:42:07.548Z,45.05
2022-12-08T09:43:15.119Z,44.60
2022-12-08T09:44:35.347Z,46.60
2022-12-08T09:45:37.990Z,52.47
2022-12-08T09:46:40.509Z,43.00
2022-12-08T09:47:52.660Z,50.22
2022-12-08T09:48:58.412Z,53.42
2022-12-08T09:50:07.902Z,48.30
2022-12-08T09:51:11.485Z,47.75
2022-12-08T09:52:22.702Z,45.85
2022-12-08T09:53:32.166Z,49.10
2022-12-08T09:54:37.155Z,48.03
2022-12-08T09:55:50.847Z,48.78
2022-12-08T09:56:56.496Z,49.38
2022-12-08T09:58:02.689Z,54.40
2022-12-08T09:59:09.055Z,56.50
2022-12-08T10:00:14.500Z,55.75
2022-12-08T10:01:17.102Z,56.60
2022-12-08T10:02:30.296Z,49.83
2022-12-08T10:03:31.988Z,49.63
2022-12-08T10:04:38.462Z,48.80
2022-12-08T10:05:47.900Z,54.83
2022-12-08T10:07:18.054Z,59.20
2022-12-08T10:08:29.343Z,49.28
2022-12-08T10:10:57.445Z,49.97
2022-12-08T10:12:27.118Z,50.53
2022-12-08T10:13:39.905Z,56.00
2022-12-08T10:14:50.060Z,50.83
2022-12-08T10:16:24.269Z,54.63
2022-12-08T10:17:34.636Z,49.10
2022-12-08T10:18:37.943Z,57.75
2022-12-08T10:19:41.062Z,51.88
2022-12-08T10:20:45.309Z,57.30
2022-12-08T10:21:47.336Z,51.28
2022-12-08T10:23:24.204Z,52.95
2022-12-08T10:24:37.416Z,50.65
2022-12-08T10:25:47.735Z,53.67
2022-12-08T10:26:49.747Z,47.92
2022-12-08T10:27:54.181Z,52.95
2022-12-08T10:29:01.337Z,50.42
2022-12-08T10:30:15.684Z,54.05
2022-12-08T10:31:21.624Z,57.15
2022-12-08T10:32:29.387Z,54.15
2022-12-08T10:33:32.730Z,50.58
2022-12-08T10:34:34.424Z,56.47
2022-12-08T10:36:05.000Z,51.45
2022-12-08T10:37:10.169Z,51.92
2022-12-08T10:38:19.793Z,50.70
2022-12-08T10:39:40.770Z,56.85
2022-12-08T10:40:45.938Z,53.08
2022-12-08T10:41:47.667Z,50.40
2022-12-08T10:42:53.589Z,54.95
2022-12-08T10:44:01.690Z,58.30
2022-12-08T10:45:09.560Z,54.15
2022-12-08T10:46:22.275Z,54.00
2022-12-08T10:47:26.622Z,55.33
2022-12-08T10:48:33.378Z,54.35
2022-12-08T10:49:36.185Z,54.58
2022-12-08T10:50:46.778Z,58.88
2022-12-08T10:51:48.430Z,51.28
2022-12-08T10:53:02.083Z,52.85
2022-12-08T10:54:06.266Z,56.85
2022-12-08T10:55:20.368Z,54.15
2022-12-08T10:56:27.266Z,52.35
2022-12-08T10:57:28.961Z,59.38
2022-12-08T10:58:42.848Z,50.50
2022-12-08T10:59:44.815Z,55.33
2022-12-08T11:00:46.762Z,54.53
2022-12-08T11:01:50.128Z,54.53
2022-12-08T11:02:56.039Z,55.97
2022-12-08T11:04:04.340Z,61.05
2022-12-08T11:05:07.913Z,56.90
2022-12-08T11:06:15.569Z,55.70
2022-12-08T11:07:23.014Z,53.30
2022-12-08T11:08:25.826Z,59.75
2022-12-08T11:09:46.942Z,60.42
2022-12-08T11:10:48.828Z,59.35
2022-12-08T11:12:06.380Z,64.20
2022-12-08T11:13:18.870Z,61.40
2022-12-08T11:14:29.422Z,59.17
2022-12-08T11:15:36.482Z,53.55
2022-12-08T11:16:42.420Z,58.05
2022-12-08T11:17:46.001Z,62.53
2022-12-08T11:18:56.731Z,66.30
2022-12-08T11:20:09.112Z,65.30
2022-12-08T11:21:14.789Z,63.38
2022-12-08T11:22:26.128Z,57.67
2022-12-08T11:24:33.491Z,62.30
2022-12-08T11:25:39.237Z,53.72
2022-12-08T11:26:46.434Z,56.22
2022-12-08T11:27:50.881Z,61.85
2022-12-08T11:28:52.615Z,53.28
2022-12-08T11:29:54.379Z,56.20
2022-12-08T11:31:01.655Z,55.78
2022-12-08T11:32:14.054Z,61.13
2022-12-08T11:33:15.738Z,63.30
2022-12-08T11:34:30.681Z,55.15
2022-12-08T11:35:37.252Z,66.25
2022-12-08T11:36:39.597Z,62.38
2022-12-08T11:37:43.582Z,63.45
2022-12-08T11:38:50.618Z,56.50
2022-12-08T11:39:56.459Z,57.28
2022-12-08T11:41:12.278Z,53.20
2022-12-08T11:42:22.515Z,58.00
2022-12-08T11:43:55.491Z,65.20
2022-12-08T11:45:06.324Z,57.75
2022-12-08T11:46:27.632Z,56.88
2022-12-08T11:47:37.261Z,54.05
2022-12-08T11:48:54.879Z,54.45
2022-12-08T11:50:19.485Z,59.25
2022-12-08T11:51:38.096Z,55.45
2022-12-08T11:52:46.321Z,55.38
2022-12-08T11:54:12.510Z,55.95
2022-12-08T11:55:14.119Z,52.42
2022-12-08T11:56:34.554Z,62.22
2022-12-08T11:57:36.316Z,58.17
2022-12-08T11:58:47.375Z,70.78
2022-12-08T11:59:51.048Z,57.15
2022-12-08T12:00:52.844Z,64.80
2022-12-08T12:01:54.912Z,61.28
2022-12-08T12:03:09.077Z,61.97
2022-12-08T12:04:36.223Z,56.67
2022-12-08T12:06:18.224Z,58.65
2022-12-08T12:07:51.572Z,55.58
2022-12-08T12:09:08.657Z,52.95
2022-12-08T12:10:13.425Z,55.58
2022-12-08T12:11:59.100Z,53.08
2022-12-08T12:13:32.816Z,54.90
2022-12-08T12:14:57.881Z,57.20
2022-12-08T12:16:36.977Z,80.30
2022-12-08T12:17:53.549Z,63.67
2022-12-08T12:19:01.991Z,57.47
2022-12-08T12:20:09.706Z,62.85
2022-12-08T12:21:20.491Z,72.55
2022-12-08T12:22:24.354Z,76.22
2022-12-08T12:23:44.861Z,79.10
2022-12-08T12:24:50.208Z,74.82
2022-12-08T12:26:03.578Z,62.90
2022-12-08T12:27:19.937Z,63.30
2022-12-08T12:28:26.263Z,55.38
2022-12-08T12:29:35.051Z,60.78
2022-12-08T12:31:15.404Z,54.33
2022-12-08T12:32:17.681Z,59.10
2022-12-08T12:33:20.746Z,55.50
2022-12-08T12:34:34.267Z,53.70
2022-12-08T12:35:42.766Z,57.25
2022-12-08T12:36:56.634Z,54.38
2022-12-08T12:38:25.989Z,59.30
2022-12-08T12:39:31.011Z,62.75
2022-12-08T12:40:41.857Z,61.17
2022-12-08T12:41:48.276Z,67.00
2022-12-08T12:42:56.120Z,63.50
2022-12-08T12:44:07.021Z,56.33
2022-12-08T12:45:22.683Z,59.67
2022-12-08T12:46:24.435Z,52.50
2022-12-08T12:47:44.518Z,56.35
2022-12-08T12:48:46.187Z,61.38
2022-12-08T12:49:50.564Z,59.63
2022-12-08T12:50:55.199Z,64.28
2022-12-08T12:51:56.923Z,60.20
2022-12-08T12:53:20.105Z,63.88
2022-12-08T12:54:24.292Z,58.42
2022-12-08T12:55:29.136Z,56.05
2022-12-08T12:56:48.628Z,58.47
2022-12-08T12:57:56.853Z,68.20
2022-12-08T12:59:22.339Z,58.30
2022-12-08T13:00:26.879Z,49.45
2022-12-08T13:01:49.914Z,58.28
2022-12-08T13:02:53.769Z,54.53
2022-12-08T13:04:09.373Z,63.45
2022-12-08T13:05:20.256Z,56.05
2022-12-08T13:06:32.277Z,56.35
2022-12-08T13:07:56.240Z,52.15
2022-12-08T13:08:59.350Z,56.30
2022-12-08T13:10:15.890Z,58.20
2022-12-08T13:11:17.851Z,67.38
2022-12-08T13:12:24.367Z,64.70
2022-12-08T13:13:26.233Z,59.15
2022-12-08T13:14:27.977Z,55.88
2022-12-08T13:15:36.765Z,56.78
2022-12-08T13:16:39.640Z,57.72
2022-12-08T13:17:45.287Z,59.92
2022-12-08T13:18:52.292Z,56.22
2022-12-08T13:20:00.490Z,56.67
2022-12-08T13:21:21.749Z,61.72
2022-12-08T13:22:54.321Z,58.05
2022-12-08T13:24:12.924Z,55.10
2022-12-08T13:25:39.603Z,57.75
2022-12-08T13:26:44.552Z,56.65
2022-12-08T13:27:53.963Z,62.63
2022-12-08T13:29:01.562Z,61.85
2022-12-08T13:30:41.583Z,55.40
2022-12-08T13:31:59.385Z,62.35
2022-12-08T13:33:18.514Z,58.35
2022-12-08T13:34:29.826Z,66.45
2022-12-08T13:35:32.385Z,74.18
2022-12-08T13:36:40.082Z,71.15
2022-12-08T13:37:54.760Z,65.30
2022-12-08T13:38:58.771Z,67.82
2022-12-08T13:40:10.597Z,67.13
2022-12-08T13:41:26.015Z,60.97
2022-12-08T13:42:43.291Z,64.28
2022-12-08T13:44:31.200Z,58.88
2022-12-08T13:45:33.974Z,59.30
2022-12-08T13:48:55.874Z,65.88
2022-12-08T13:56:59.384Z,57.95
2022-12-08T13:57:32.782Z,67.70
2022-12-08T13:58:36.723Z,56.75
2022-12-08T13:59:44.785Z,57.25
2022-12-08T14:01:05.851Z,58.72
2022-12-08T14:02:20.836Z,58.60
2022-12-08T14:03:22.689Z,68.40
2022-12-08T14:06:11.669Z,65.28
2022-12-08T14:07:10.924Z,61.83
2022-12-08T14:08:57.796Z,56.55
2022-12-08T14:09:49.371Z,62.50
2022-12-08T14:10:58.477Z,61.65
2022-12-08T14:12:18.072Z,63.50
2022-12-08T14:13:19.807Z,54.20
2022-12-08T14:15:00.732Z,55.90
2022-12-08T14:15:51.212Z,63.65
2022-12-08T14:16:56.602Z,62.60
2022-12-08T14:17:58.822Z,59.60
2022-12-08T14:19:06.036Z,67.20
2022-12-08T14:20:27.275Z,70.30
2022-12-08T14:21:34.369Z,74.38
2022-12-08T14:22:40.371Z,72.32
2022-12-08T14:23:44.656Z,72.63
2022-12-08T14:24:51.497Z,78.95
2022-12-08T14:25:53.828Z,71.25
2022-12-08T14:26:59.654Z,74.80
2022-12-08T14:28:04.319Z,78.15
2022-12-08T14:29:09.993Z,91.07
2022-12-08T14:30:14.908Z,96.95